Flight Track Log - Related Links

Times and Time Zones

All times are in EDT time to prevent confusion due to time zone crossing. See the FSR411 flight status page for this flight to view local times or setup timezone preferences in your user account.

Time Position Orientation Groundspeed Altitude Reporting Facility
EDT Latitude Longitude Course Direction KTS MPH feet Rate Location/Type
Tue 07:59:38 AM 40.9969 -90.3094 112° Southeast 231 266 6,700  Level Chicago Center
Tue 08:00:40 AM 40.9714 -90.2325 114° Southeast 246 283 10,500 3,707 Climbing Chicago Center
Tue 08:01:41 AM 40.9608 -90.1292 98° East 280 322 14,300 3,805 Climbing Chicago Center
Tue 08:02:43 AM 40.9450 -89.9983 99° East 319 367 18,300 3,484 Climbing Chicago Center
Tue 08:03:00 AM 40.8404 -89.3289 102° East  Level Estimated
Tue 08:03:45 AM 40.9300 -89.8636 98° East 365 420 21,500  Level Chicago Center
Tue 08:04:00 AM 40.8267 -89.1916 98° East  Level FlightAware Approximate
Tue 08:04:47 AM 40.9117 -89.7183 99° East 398 458 24,400  Level Chicago Center
Tue 08:05:48 AM 40.8889 -89.5361 99° East 431 496 27,200 2,439 Climbing Chicago Center
Tue 08:06:50 AM 40.8683 -89.3656 99° East 462 532 29,400 2,081 Climbing Chicago Center
Tue 08:07:52 AM 40.8467 -89.1894 99° East 479 551 31,500 1,640 Climbing Chicago Center
Tue 08:09:42 AM 40.8008 -88.8456 100° East 513 590 34,100 1,395 Climbing Indianapolis Center
Tue 08:10:44 AM 40.7806 -88.6486 98° East 535 616 35,500 1,268 Climbing Indianapolis Center
Tue 08:11:45 AM 40.7956 -88.4481 84° East 543 625 36,700 732 Climbing Indianapolis Center
Tue 08:12:47 AM 40.8125 -88.2425 84° East 558 642 37,000 145 Climbing Indianapolis Center
Tue 08:13:49 AM 40.8261 -88.0314 85° East 571 657 37,000  Level Indianapolis Center
Tue 08:14:50 AM 40.8400 -87.8189 85° East 578 665 37,000  Level Indianapolis Center
Tue 08:15:52 AM 40.8569 -87.5650 85° East 580 667 37,000  Level Indianapolis Center
Tue 08:16:53 AM 40.8689 -87.3572 86° East 575 662 37,000  Level Indianapolis Center
Tue 08:17:55 AM 40.8808 -87.1506 86° East 569 655 37,000  Level Indianapolis Center
Tue 08:18:57 AM 40.8928 -86.9456 86° East 564 649 37,000  Level Indianapolis Center
Tue 08:19:58 AM 40.9044 -86.7386 86° East 564 649 37,000 -293 Level Indianapolis Center
Tue 08:21:00 AM 40.9156 -86.5339 86° East 562 647 36,400 -878 Descending Indianapolis Center
Tue 08:22:01 AM 40.9261 -86.3314 86° East 557 641 35,200 -1,171 Descending Indianapolis Center
Tue 08:23:03 AM 40.9356 -86.1256 86° East 558 642 34,000 -1,220 Descending Indianapolis Center
Tue 08:24:04 AM 40.9458 -85.9200 86° East 560 644 32,700 -1,317 Descending Indianapolis Center
Tue 08:25:06 AM 40.9372 -85.6786 93° East 554 638 31,300 -1,415 Descending Indianapolis Center
Tue 08:26:07 AM 40.9194 -85.4839 97° East 544 626 29,800 -1,659 Descending Indianapolis Center
Tue 08:27:09 AM 40.9014 -85.2900 97° East 538 619 27,900 -2,032 Descending Indianapolis Center
Tue 08:28:11 AM 40.8836 -85.1056 97° East 521 600 25,600 -2,146 Descending Indianapolis Center
Tue 08:29:12 AM 40.8669 -84.9367 97° East 478 550 23,500 -1,268 Descending Indianapolis Center
Tue 08:30:14 AM 40.8522 -84.7672 96° East 469 540 23,000 -242 Descending Indianapolis Center
Tue 08:31:16 AM 40.8006 -84.6061 113° Southeast 477 549 23,000  Level Indianapolis Center
Tue 08:32:17 AM 40.7422 -84.4186 112° Southeast 463 533 23,000 -390 Level Indianapolis Center
Tue 08:33:19 AM 40.6928 -84.2594 112° Southeast 468 539 22,200 -1,500 Descending Indianapolis Center
Tue 08:34:21 AM 40.6453 -84.1083 112° Southeast 455 524 19,900 -2,049 Descending Indianapolis Center
Tue 08:35:22 AM 40.6000 -83.9653 113° Southeast 431 496 18,000 -2,098 Descending Indianapolis Center
Tue 08:36:24 AM 40.5558 -83.8311 113° Southeast 407 468 15,600 -2,274 Descending Indianapolis Center
Tue 08:37:26 AM 40.5136 -83.6983 113° Southeast 395 455 13,300 -2,329 Descending Indianapolis Center
Tue 08:37:49 AM 40.4944 -83.6389 113° Southeast 383 441 12,300 -1,925 Descending Indianapolis Center
Tue 08:38:19 AM 40.4719 -83.5689 113° Southeast 381 438 11,600 -1,105 Descending Indianapolis Center
Tue 08:38:27 AM 40.4725 -83.5706 294° West 382 440 11,600 -590 Level Indianapolis Center
Tue 08:39:20 AM 40.4233 -83.4450 117° Southeast 383 441 11,000 -581 Descending Indianapolis Center
Tue 08:39:29 AM 40.4261 -83.4442 13° North 382 440 11,000  Level Indianapolis Center
Tue 08:40:21 AM 40.3603 -83.3356 128° Southeast 367 422 11,000  Level Indianapolis Center
Tue 08:40:31 AM 40.3500 -83.3161 125° Southeast 370 426 11,000 -917 Level Indianapolis Center
Tue 08:41:33 AM 40.2919 -83.2169 127° Southeast 349 402 9,900 -1,472 Descending Indianapolis Center
Tue 08:42:17 AM 40.2522 -83.1503 128° Southeast 301 346 8,400 -1,869 Descending Indianapolis Center
Tue 08:42:34 AM 40.2417 -83.1300 124° Southeast 310 357 8,000 -1,869 Descending Indianapolis Center
Tue 08:43:18 AM 40.2033 -83.0683 129° Southeast 286 329 6,500 -1,935 Descending Indianapolis Center
Tue 08:43:36 AM 40.1936 -83.0475 121° Southeast 294 338 6,000 -1,967 Descending Indianapolis Center
Tue 08:44:19 AM 40.1761 -82.9789 108° East 269 310 4,500 -1,742 Descending Indianapolis Center
Tue 08:44:38 AM 40.1747 -82.9567 95° East 262 302 4,200 -1,377 Descending Indianapolis Center
Tue 08:45:20 AM 40.1661 -82.8869 99° East 250 288 3,100 -1,180 Descending Indianapolis Center
Tue 08:45:39 AM 40.1653 -82.8653 93° East 257 296 3,000 -100 Descending Indianapolis Center
Tue 08:46:20 AM 40.1375 -82.8331 138° Southeast 192 221 3,000  Level Indianapolis Center
Tue 08:46:41 AM 40.1278 -82.8325 177° South 207 238 3,000  Level Indianapolis Center
Tue 08:47:15 AM 40.0944 -82.8453 196° South 162 186 3,000  Level Indianapolis Center
Tue 08:47:43 AM 40.0872 -82.8608 239° Southwest 188 216 3,000  Level Indianapolis Center
Tue 08:48:16 AM 40.0822 -82.9064 262° West 179 206 3,000 -194 Level Indianapolis Center
Tue 08:48:45 AM 40.0828 -82.9381 271° West 181 208 2,800 -590 Descending Indianapolis Center
Tue 08:49:17 AM 40.0803 -82.9717 264° West 168 193 2,400 -787 Descending Indianapolis Center
Tue 08:49:46 AM 40.0803 -82.9978 270° West 173 199 2,000 -806 Descending Indianapolis Center
Tue 08:50:24 AM 40.0792 -83.0289 267° West 144 166 1,500 -581 Descending Indianapolis Center
Tue 08:50:48 AM 40.0786 -83.0461 268° West 148 170 1,400 -250 Descending Indianapolis Center
Tue 08:52:00 AM 40.0667 -83.0667 166° South  Level FlightAware Approximate
Tue 08:59:00 AM 40.0798 -83.0732 166° South  Level Estimated

Login

Don't have an account? Register now (free) for customized features, flight alerts, and more!